createdAt,value
2018-07-15T00:00:01.734Z,956.3
2018-07-15T00:01:01.724Z,956.34
2018-07-15T00:02:01.717Z,956.28
2018-07-15T00:03:01.710Z,956.28
2018-07-15T00:04:01.703Z,956.29
2018-07-15T00:05:01.697Z,956.26
2018-07-15T00:06:01.691Z,956.23
2018-07-15T00:07:01.682Z,956.24
2018-07-15T00:08:01.677Z,956.31
2018-07-15T00:09:01.673Z,956.27
2018-07-15T00:10:01.663Z,956.24
2018-07-15T00:11:01.656Z,956.27
2018-07-15T00:12:01.649Z,956.28
2018-07-15T00:13:01.643Z,956.24
2018-07-15T00:14:01.635Z,956.25
2018-07-15T00:15:01.629Z,956.26
2018-07-15T00:16:01.623Z,956.26
2018-07-15T00:17:01.638Z,956.3
2018-07-15T00:18:01.611Z,956.26
2018-07-15T00:19:01.603Z,956.28
2018-07-15T00:20:01.598Z,956.25
2018-07-15T00:21:01.590Z,956.28
2018-07-15T00:22:01.582Z,956.28
2018-07-15T00:23:01.577Z,956.22
2018-07-15T00:24:01.569Z,956.27
2018-07-15T00:25:01.563Z,956.26
2018-07-15T00:26:01.562Z,956.23
2018-07-15T00:27:01.549Z,956.22
2018-07-15T00:28:01.556Z,956.22
2018-07-15T00:29:01.537Z,956.2
2018-07-15T00:30:01.529Z,956.19
2018-07-15T00:31:01.523Z,956.16
2018-07-15T00:32:01.536Z,956.16
2018-07-15T00:33:01.528Z,956.18
2018-07-15T00:34:01.520Z,956.15
2018-07-15T00:35:01.537Z,956.15
2018-07-15T00:36:01.528Z,956.11
2018-07-15T00:37:01.521Z,956.15
2018-07-15T00:38:01.540Z,956.16
2018-07-15T00:39:01.533Z,956.14
2018-07-15T00:40:01.526Z,956.11
2018-07-15T00:41:01.518Z,956.12
2018-07-15T00:42:01.511Z,956.15
2018-07-15T00:43:01.508Z,956.11
2018-07-15T00:44:01.497Z,956.14
2018-07-15T00:45:01.490Z,956.15
2018-07-15T00:46:01.485Z,956.11
2018-07-15T00:47:01.478Z,956.1
2018-07-15T00:48:01.470Z,956.11
2018-07-15T00:49:01.463Z,956.11
2018-07-15T00:50:01.455Z,956.08
2018-07-15T00:51:01.449Z,956.05
2018-07-15T00:52:01.441Z,956.06
2018-07-15T00:53:01.435Z,956.06
2018-07-15T00:54:01.428Z,956.07
2018-07-15T00:55:01.421Z,956.03
2018-07-15T00:56:01.413Z,956.03
2018-07-15T00:57:01.409Z,956.01
2018-07-15T00:58:01.404Z,956
2018-07-15T00:59:01.393Z,956.05
2018-07-15T01:00:01.386Z,956.05
2018-07-15T01:01:01.380Z,956.02
2018-07-15T01:02:01.372Z,956.05
2018-07-15T01:03:01.365Z,956.06
2018-07-15T01:04:01.357Z,955.98
2018-07-15T01:05:01.351Z,956.02
2018-07-15T01:06:01.344Z,956.02
2018-07-15T01:07:01.338Z,956.05
2018-07-15T01:08:01.332Z,956.03
2018-07-15T01:09:01.324Z,956.09
2018-07-15T01:10:01.316Z,956.06
2018-07-15T01:11:01.309Z,956.07
2018-07-15T01:12:01.304Z,956.07
2018-07-15T01:13:01.296Z,956.06
2018-07-15T01:14:01.288Z,956.04
2018-07-15T01:15:01.282Z,956.07
2018-07-15T01:16:01.276Z,956.06
2018-07-15T01:17:01.267Z,956.03
2018-07-15T01:18:01.260Z,956.03
2018-07-15T01:19:01.254Z,956.06
2018-07-15T01:20:01.247Z,956.06
2018-07-15T01:21:01.240Z,956.05
2018-07-15T01:22:01.231Z,956.08
2018-07-15T01:23:01.227Z,956.03
2018-07-15T01:24:01.218Z,956.06
2018-07-15T01:25:01.212Z,956.08
2018-07-15T01:26:01.204Z,956.02
2018-07-15T01:27:01.197Z,956.05
2018-07-15T01:28:01.193Z,956.04
2018-07-15T01:29:01.183Z,956.04
2018-07-15T01:30:01.175Z,956.02
2018-07-15T01:31:01.169Z,956
2018-07-15T01:32:01.160Z,956.02
2018-07-15T01:33:01.154Z,956.05
2018-07-15T01:34:01.146Z,956.01
2018-07-15T01:35:01.140Z,956
2018-07-15T01:36:01.133Z,956.01
2018-07-15T01:37:01.128Z,956.02
2018-07-15T01:38:01.119Z,956.03
2018-07-15T01:39:01.111Z,956.04
2018-07-15T01:40:01.103Z,956.05
2018-07-15T01:41:01.096Z,956.1
2018-07-15T01:42:01.091Z,956.05
2018-07-15T01:43:01.080Z,956.01
2018-07-15T01:44:01.074Z,956.03
2018-07-15T01:45:01.067Z,956.02
2018-07-15T01:46:01.060Z,956.04
2018-07-15T01:47:01.051Z,956.04
2018-07-15T01:48:01.044Z,956.06
2018-07-15T01:49:01.042Z,956.04
2018-07-15T01:50:01.029Z,956.02
2018-07-15T01:51:01.023Z,956.01
2018-07-15T01:52:01.014Z,955.97
2018-07-15T01:53:01.007Z,955.96
2018-07-15T01:54:01.002Z,955.99
2018-07-15T01:55:00.992Z,955.93
2018-07-15T01:56:00.984Z,955.94
2018-07-15T01:57:00.979Z,955.96
2018-07-15T01:58:00.970Z,955.95
2018-07-15T01:59:00.961Z,955.96
2018-07-15T02:00:00.954Z,955.93
2018-07-15T02:01:00.948Z,955.94
2018-07-15T02:02:00.941Z,955.93
2018-07-15T02:03:00.934Z,955.93
2018-07-15T02:04:00.924Z,955.92
2018-07-15T02:05:00.916Z,955.91
2018-07-15T02:06:00.908Z,955.93
2018-07-15T02:07:00.901Z,955.92
2018-07-15T02:08:00.894Z,955.9
2018-07-15T02:09:00.884Z,955.89
2018-07-15T02:10:00.880Z,955.88
2018-07-15T02:11:00.871Z,955.91
2018-07-15T02:12:00.866Z,955.92
2018-07-15T02:13:00.856Z,955.92
2018-07-15T02:14:00.848Z,955.9
2018-07-15T02:15:00.840Z,955.94
2018-07-15T02:16:00.833Z,955.88
2018-07-15T02:17:00.837Z,955.89
2018-07-15T02:18:00.816Z,955.87
2018-07-15T02:19:00.810Z,955.89
2018-07-15T02:20:00.801Z,955.89
2018-07-15T02:21:00.794Z,955.85
2018-07-15T02:22:00.788Z,955.86
2018-07-15T02:23:00.782Z,955.91
2018-07-15T02:24:00.773Z,955.85
2018-07-15T02:25:00.765Z,955.87
2018-07-15T02:26:00.758Z,955.87
2018-07-15T02:27:00.748Z,955.85
2018-07-15T02:28:00.789Z,955.86
2018-07-15T02:29:00.733Z,955.79
2018-07-15T02:30:00.804Z,955.77
2018-07-15T02:31:00.718Z,955.81
2018-07-15T02:32:00.711Z,955.76
2018-07-15T02:33:00.702Z,955.8
2018-07-15T02:34:00.695Z,955.73
2018-07-15T02:35:00.687Z,955.75
2018-07-15T02:36:00.680Z,955.77
2018-07-15T02:37:00.673Z,955.76
2018-07-15T02:38:00.665Z,955.71
2018-07-15T02:39:00.658Z,955.75
2018-07-15T02:40:00.679Z,955.73
2018-07-15T02:41:00.642Z,955.73
2018-07-15T02:42:00.632Z,955.71
2018-07-15T02:43:00.624Z,955.7
2018-07-15T02:44:00.619Z,955.7
2018-07-15T02:45:00.610Z,955.69
2018-07-15T02:46:00.601Z,955.7
2018-07-15T02:47:00.594Z,955.73
2018-07-15T02:48:00.586Z,955.68
2018-07-15T02:49:00.581Z,955.71
2018-07-15T02:50:00.570Z,955.7
2018-07-15T02:51:00.562Z,955.73
2018-07-15T02:52:00.556Z,955.71
2018-07-15T02:53:00.549Z,955.69
2018-07-15T02:54:00.539Z,955.72
2018-07-15T02:55:00.534Z,955.69
2018-07-15T02:56:00.523Z,955.7
2018-07-15T02:57:00.515Z,955.71
2018-07-15T02:58:00.510Z,955.68
2018-07-15T02:59:00.500Z,955.72
2018-07-15T03:00:00.493Z,955.71
2018-07-15T03:01:00.485Z,955.63
2018-07-15T03:02:00.483Z,955.67
2018-07-15T03:03:00.472Z,955.66
2018-07-15T03:04:00.461Z,955.67
2018-07-15T03:05:00.453Z,955.65
2018-07-15T03:06:00.446Z,955.65
2018-07-15T03:07:00.437Z,955.62
2018-07-15T03:08:00.436Z,955.62
2018-07-15T03:09:00.423Z,955.63
2018-07-15T03:10:00.416Z,955.62
2018-07-15T03:11:00.409Z,955.63
2018-07-15T03:12:00.398Z,955.63
2018-07-15T03:13:00.405Z,955.59
2018-07-15T03:14:00.384Z,955.63
2018-07-15T03:15:00.376Z,955.6
2018-07-15T03:16:00.368Z,955.62
2018-07-15T03:17:00.362Z,955.6
2018-07-15T03:18:00.351Z,955.61
2018-07-15T03:19:00.345Z,955.61
2018-07-15T03:20:00.336Z,955.59
2018-07-15T03:21:00.329Z,955.61
2018-07-15T03:22:00.321Z,955.63
2018-07-15T03:23:00.312Z,955.58
2018-07-15T03:24:00.307Z,955.61
2018-07-15T03:25:00.299Z,955.6
2018-07-15T03:26:00.289Z,955.59
2018-07-15T03:27:00.281Z,955.56
2018-07-15T03:28:00.274Z,955.59
2018-07-15T03:29:00.266Z,955.6
2018-07-15T03:30:00.257Z,955.62
2018-07-15T03:31:00.255Z,955.61
2018-07-15T03:32:00.242Z,955.61
2018-07-15T03:33:00.233Z,955.6
2018-07-15T03:34:00.248Z,955.64
2018-07-15T03:35:00.219Z,955.64
2018-07-15T03:36:00.214Z,955.58
2018-07-15T03:37:00.203Z,955.59
2018-07-15T03:38:00.196Z,955.6
2018-07-15T03:39:00.189Z,955.55
2018-07-15T03:40:00.266Z,955.58
2018-07-15T03:41:00.171Z,955.59
2018-07-15T03:42:00.164Z,955.59
2018-07-15T03:43:00.156Z,955.58
2018-07-15T03:44:00.147Z,955.58
2018-07-15T03:45:00.142Z,955.56
2018-07-15T03:46:00.135Z,955.56
2018-07-15T03:47:00.126Z,955.55
2018-07-15T03:48:00.119Z,955.62
2018-07-15T03:49:00.111Z,955.57
2018-07-15T03:50:00.103Z,955.6
2018-07-15T03:51:00.094Z,955.55
2018-07-15T03:52:00.089Z,955.56
2018-07-15T03:53:00.083Z,955.58
2018-07-15T03:54:00.072Z,955.57
2018-07-15T03:55:00.065Z,955.57
2018-07-15T03:56:00.057Z,955.58
2018-07-15T03:57:00.050Z,955.54
2018-07-15T03:58:00.043Z,955.56
2018-07-15T03:59:00.036Z,955.56
2018-07-15T04:00:00.037Z,955.55
2018-07-15T04:01:00.039Z,955.51
2018-07-15T04:02:00.014Z,955.55
2018-07-15T04:03:00.006Z,955.52
2018-07-15T04:03:59.997Z,955.54
2018-07-15T04:04:59.989Z,955.54
2018-07-15T04:05:59.983Z,955.53
2018-07-15T04:06:59.974Z,955.56
2018-07-15T04:07:59.974Z,955.54
2018-07-15T04:08:59.997Z,955.49
2018-07-15T04:09:59.950Z,955.47
2018-07-15T04:10:59.944Z,955.45
2018-07-15T04:11:59.937Z,955.49
2018-07-15T04:12:59.928Z,955.48
2018-07-15T04:13:59.921Z,955.52
2018-07-15T04:14:59.950Z,955.51
2018-07-15T04:15:59.905Z,955.54
2018-07-15T04:16:59.898Z,955.55
2018-07-15T04:17:59.890Z,955.53
2018-07-15T04:18:59.883Z,955.51
2018-07-15T04:19:59.875Z,955.49
2018-07-15T04:20:59.870Z,955.48
2018-07-15T04:21:59.862Z,955.48
2018-07-15T04:22:59.854Z,955.47
2018-07-15T04:23:59.845Z,955.5
2018-07-15T04:24:59.838Z,955.47
2018-07-15T04:25:59.831Z,955.46
2018-07-15T04:26:59.824Z,955.46
2018-07-15T04:27:59.817Z,955.41
2018-07-15T04:28:59.809Z,955.43
2018-07-15T04:29:59.801Z,955.43
2018-07-15T04:30:59.794Z,955.44
2018-07-15T04:31:59.788Z,955.43
2018-07-15T04:32:59.779Z,955.43
2018-07-15T04:33:59.772Z,955.45
2018-07-15T04:34:59.778Z,955.44
2018-07-15T04:35:59.758Z,955.43
2018-07-15T04:36:59.752Z,955.47
2018-07-15T04:37:59.761Z,955.42
2018-07-15T04:38:59.738Z,955.42
2018-07-15T04:39:59.730Z,955.36
2018-07-15T04:40:59.723Z,955.38
2018-07-15T04:41:59.716Z,955.4
2018-07-15T04:42:59.709Z,955.39
2018-07-15T04:43:59.703Z,955.39
2018-07-15T04:44:59.695Z,955.38
2018-07-15T04:45:59.688Z,955.37
2018-07-15T04:46:59.680Z,955.41
2018-07-15T04:47:59.674Z,955.35
2018-07-15T04:48:59.668Z,955.38
2018-07-15T04:49:59.660Z,955.38
2018-07-15T04:50:59.655Z,955.4
2018-07-15T04:51:59.647Z,955.36
2018-07-15T04:52:59.642Z,955.42
2018-07-15T04:53:59.632Z,955.41
2018-07-15T04:54:59.626Z,955.45
2018-07-15T04:55:59.620Z,955.44
2018-07-15T04:56:59.613Z,955.42
2018-07-15T04:57:59.606Z,955.46
2018-07-15T04:58:59.600Z,955.44
2018-07-15T04:59:59.594Z,955.46
2018-07-15T05:00:59.587Z,955.46
2018-07-15T05:01:59.619Z,955.4
2018-07-15T05:02:59.575Z,955.45
2018-07-15T05:03:59.566Z,955.39
2018-07-15T05:04:59.560Z,955.42
2018-07-15T05:05:59.555Z,955.45
2018-07-15T05:06:59.549Z,955.42
2018-07-15T05:07:59.541Z,955.37
2018-07-15T05:08:59.534Z,955.39
2018-07-15T05:09:59.530Z,955.4
2018-07-15T05:10:59.522Z,955.45
2018-07-15T05:11:59.518Z,955.46
2018-07-15T05:12:59.510Z,955.47
2018-07-15T05:13:59.535Z,955.5
2018-07-15T05:14:59.496Z,955.49
2018-07-15T05:15:59.490Z,955.53
2018-07-15T05:16:59.484Z,955.53
2018-07-15T05:17:59.478Z,955.54
2018-07-15T05:18:59.473Z,955.57
2018-07-15T05:19:59.465Z,955.58
2018-07-15T05:20:59.465Z,955.56
2018-07-15T05:21:59.458Z,955.56
2018-07-15T05:22:59.448Z,955.59
2018-07-15T05:23:59.443Z,955.58
2018-07-15T05:24:59.505Z,955.58
2018-07-15T05:25:59.429Z,955.58
2018-07-15T05:26:59.424Z,955.55
2018-07-15T05:27:59.418Z,955.56
2018-07-15T05:28:59.413Z,955.57
2018-07-15T05:29:59.406Z,955.62
2018-07-15T05:30:59.401Z,955.61
2018-07-15T05:31:59.400Z,955.6
2018-07-15T05:32:59.390Z,955.65
2018-07-15T05:33:59.385Z,955.61
2018-07-15T05:34:59.412Z,955.6
2018-07-15T05:35:59.375Z,955.63
2018-07-15T05:36:59.368Z,955.61
2018-07-15T05:37:59.363Z,955.57
2018-07-15T05:38:59.359Z,955.65
2018-07-15T05:39:59.353Z,955.61
2018-07-15T05:40:59.347Z,955.62
2018-07-15T05:41:59.343Z,955.68
2018-07-15T05:42:59.337Z,955.61
2018-07-15T05:43:59.331Z,955.64
2018-07-15T05:44:59.327Z,955.65
2018-07-15T05:45:59.320Z,955.65
2018-07-15T05:46:59.318Z,955.62
2018-07-15T05:47:59.310Z,955.6
2018-07-15T05:48:59.306Z,955.62
2018-07-15T05:49:59.301Z,955.59
2018-07-15T05:50:59.297Z,955.57
2018-07-15T05:51:59.339Z,955.58
2018-07-15T05:52:59.285Z,955.55
2018-07-15T05:53:59.283Z,955.56
2018-07-15T05:54:59.278Z,955.55
2018-07-15T05:55:59.271Z,955.56
2018-07-15T05:56:59.267Z,955.53
2018-07-15T05:57:59.352Z,955.59
2018-07-15T05:58:59.258Z,955.6
2018-07-15T05:59:59.253Z,955.58
2018-07-15T06:00:59.248Z,955.58
2018-07-15T06:01:59.243Z,955.54
2018-07-15T06:02:59.250Z,955.6
2018-07-15T06:03:59.234Z,955.6
2018-07-15T06:04:59.234Z,955.53
2018-07-15T06:05:59.225Z,955.58
2018-07-15T06:06:59.220Z,955.59
2018-07-15T06:07:59.215Z,955.61
2018-07-15T06:08:59.212Z,955.59
2018-07-15T06:09:59.207Z,955.63
2018-07-15T06:10:59.202Z,955.64
2018-07-15T06:11:59.198Z,955.62
2018-07-15T06:12:59.193Z,955.59
2018-07-15T06:13:59.193Z,955.63
2018-07-15T06:14:59.187Z,955.6
2018-07-15T06:15:59.181Z,955.6
2018-07-15T06:16:59.184Z,955.61
2018-07-15T06:17:59.172Z,955.62
2018-07-15T06:18:59.169Z,955.64
2018-07-15T06:19:59.163Z,955.62
2018-07-15T06:20:59.160Z,955.66
2018-07-15T06:21:59.155Z,955.65
2018-07-15T06:22:59.151Z,955.65
2018-07-15T06:23:59.146Z,955.66
2018-07-15T06:24:59.141Z,955.62
2018-07-15T06:25:59.138Z,955.63
2018-07-15T06:26:59.134Z,955.66
2018-07-15T06:27:59.129Z,955.61
2018-07-15T06:28:59.126Z,955.61
2018-07-15T06:29:59.122Z,955.59
2018-07-15T06:30:59.171Z,955.58
2018-07-15T06:31:59.292Z,955.6
2018-07-15T06:32:59.113Z,955.61
2018-07-15T06:33:59.107Z,955.64
2018-07-15T06:34:59.103Z,955.6
2018-07-15T06:35:59.099Z,955.61
2018-07-15T06:36:59.094Z,955.63
2018-07-15T06:37:59.091Z,955.62
2018-07-15T06:38:59.085Z,955.67
2018-07-15T06:39:59.082Z,955.66
2018-07-15T06:40:59.079Z,955.66
2018-07-15T06:41:59.075Z,955.63
2018-07-15T06:42:59.071Z,955.64
2018-07-15T06:43:59.068Z,955.64
2018-07-15T06:44:59.064Z,955.65
2018-07-15T06:45:59.067Z,955.64
2018-07-15T06:46:59.056Z,955.63
2018-07-15T06:47:59.053Z,955.6
2018-07-15T06:48:59.049Z,955.61
2018-07-15T06:49:59.046Z,955.6
2018-07-15T06:50:59.044Z,955.62
2018-07-15T06:51:59.042Z,955.65
2018-07-15T06:52:59.038Z,955.67
2018-07-15T06:53:59.129Z,955.7
2018-07-15T06:54:59.035Z,955.66
2018-07-15T06:55:59.107Z,955.67
2018-07-15T06:56:59.032Z,955.69
2018-07-15T06:57:59.028Z,955.64
2018-07-15T06:58:59.028Z,955.64
2018-07-15T06:59:59.027Z,955.64
2018-07-15T07:00:59.026Z,955.64
2018-07-15T07:01:59.027Z,955.67
2018-07-15T07:02:59.027Z,955.67
2018-07-15T07:03:59.028Z,955.7
2018-07-15T07:04:59.029Z,955.7
2018-07-15T07:05:59.030Z,955.72
2018-07-15T07:06:59.030Z,955.7
2018-07-15T07:07:59.033Z,955.77
2018-07-15T07:08:59.034Z,955.73
2018-07-15T07:09:59.036Z,955.73
2018-07-15T07:10:59.043Z,955.76
2018-07-15T07:11:59.040Z,955.72
2018-07-15T07:12:59.043Z,955.72
2018-07-15T07:13:59.048Z,955.74
2018-07-15T07:14:59.054Z,955.76
2018-07-15T07:15:59.052Z,955.7
2018-07-15T07:16:59.056Z,955.71
2018-07-15T07:17:59.061Z,955.72
2018-07-15T07:18:59.062Z,955.67
2018-07-15T07:19:59.067Z,955.7
2018-07-15T07:20:59.073Z,955.71
2018-07-15T07:21:59.076Z,955.73
2018-07-15T07:22:59.079Z,955.7
2018-07-15T07:23:59.083Z,955.7
2018-07-15T07:24:59.089Z,955.7
2018-07-15T07:25:59.095Z,955.66
2018-07-15T07:26:59.098Z,955.63
2018-07-15T07:27:59.104Z,955.64
2018-07-15T07:28:59.109Z,955.64
2018-07-15T07:29:59.111Z,955.6
2018-07-15T07:30:59.117Z,955.85
2018-07-15T07:31:59.122Z,955.8
2018-07-15T07:32:59.127Z,955.79
2018-07-15T07:33:59.129Z,955.72
2018-07-15T07:34:59.134Z,955.78
2018-07-15T07:35:59.139Z,955.78
2018-07-15T07:36:59.143Z,955.8
2018-07-15T07:37:59.154Z,955.82
2018-07-15T07:38:59.152Z,955.79
2018-07-15T07:39:59.160Z,955.82
2018-07-15T07:40:59.161Z,955.86
2018-07-15T07:41:59.168Z,955.83
2018-07-15T07:42:59.172Z,955.75
2018-07-15T07:43:59.178Z,955.82
2018-07-15T07:44:59.184Z,955.8
2018-07-15T07:45:59.188Z,955.87
2018-07-15T07:46:59.252Z,955.79
2018-07-15T07:47:59.199Z,955.78
2018-07-15T07:48:59.204Z,955.72
2018-07-15T07:49:59.212Z,955.74
2018-07-15T07:50:59.217Z,955.71
2018-07-15T07:51:59.221Z,955.67
2018-07-15T07:52:59.228Z,955.69
2018-07-15T07:53:59.234Z,955.72
2018-07-15T07:54:59.240Z,955.7
2018-07-15T07:55:59.246Z,955.72
2018-07-15T07:56:59.252Z,955.71
2018-07-15T07:57:59.259Z,955.7
2018-07-15T07:58:59.266Z,955.68
2018-07-15T07:59:59.274Z,955.66
2018-07-15T08:00:59.277Z,955.7
2018-07-15T08:01:59.295Z,955.66
2018-07-15T08:02:59.290Z,955.65
2018-07-15T08:03:59.297Z,955.65
2018-07-15T08:04:59.302Z,955.63
2018-07-15T08:05:59.309Z,955.67
2018-07-15T08:06:59.314Z,955.61
2018-07-15T08:07:59.320Z,955.62
2018-07-15T08:08:59.326Z,955.67
2018-07-15T08:09:59.334Z,955.66
2018-07-15T08:10:59.340Z,955.64
2018-07-15T08:11:59.344Z,955.69
2018-07-15T08:12:59.361Z,955.65
2018-07-15T08:13:59.361Z,955.66
2018-07-15T08:14:59.361Z,955.64
2018-07-15T08:15:59.367Z,955.66
2018-07-15T08:16:59.372Z,955.67
2018-07-15T08:17:59.377Z,955.65
2018-07-15T08:18:59.382Z,955.64
2018-07-15T08:19:59.386Z,955.64
2018-07-15T08:20:59.392Z,955.63
2018-07-15T08:21:59.396Z,955.65
2018-07-15T08:22:59.406Z,955.64
2018-07-15T08:23:59.406Z,955.65
2018-07-15T08:24:59.410Z,955.63
2018-07-15T08:25:59.415Z,955.6
2018-07-15T08:26:59.420Z,955.59
2018-07-15T08:27:59.425Z,955.6
2018-07-15T08:28:59.430Z,955.61
2018-07-15T08:29:59.433Z,955.64
2018-07-15T08:30:59.437Z,955.65
2018-07-15T08:31:59.441Z,955.66
2018-07-15T08:32:59.445Z,955.68
2018-07-15T08:33:59.448Z,955.64
2018-07-15T08:34:59.579Z,955.66
2018-07-15T08:35:59.453Z,955.66
2018-07-15T08:36:59.458Z,955.66
2018-07-15T08:37:59.462Z,955.68
2018-07-15T08:38:59.466Z,955.68
2018-07-15T08:39:59.469Z,955.68
2018-07-15T08:40:59.473Z,955.63
2018-07-15T08:41:59.476Z,955.63
2018-07-15T08:42:59.479Z,955.64
2018-07-15T08:43:59.482Z,955.64
2018-07-15T08:44:59.489Z,955.64
2018-07-15T08:45:59.495Z,955.65
2018-07-15T08:46:59.493Z,955.62
2018-07-15T08:47:59.497Z,955.61
2018-07-15T08:48:59.508Z,955.6
2018-07-15T08:49:59.511Z,955.58
2018-07-15T08:50:59.507Z,955.56
2018-07-15T08:51:59.508Z,955.61
2018-07-15T08:52:59.513Z,955.63
2018-07-15T08:53:59.515Z,955.66
2018-07-15T08:54:59.517Z,955.69
2018-07-15T08:55:59.520Z,955.7
2018-07-15T08:56:59.523Z,955.69
2018-07-15T08:57:59.525Z,955.7
2018-07-15T08:58:59.529Z,955.69
2018-07-15T08:59:59.531Z,955.68
2018-07-15T09:00:59.578Z,955.65
2018-07-15T09:01:59.538Z,955.66
2018-07-15T09:02:59.539Z,955.63
2018-07-15T09:03:59.543Z,955.64
2018-07-15T09:04:59.543Z,955.65
2018-07-15T09:05:59.548Z,955.68
2018-07-15T09:06:59.549Z,955.7
2018-07-15T09:07:59.552Z,955.66
2018-07-15T09:08:59.553Z,955.7
2018-07-15T09:09:59.558Z,955.69
2018-07-15T09:10:59.560Z,955.67
2018-07-15T09:11:59.563Z,955.66
2018-07-15T09:12:59.565Z,955.67
2018-07-15T09:13:59.569Z,955.68
2018-07-15T09:14:59.571Z,955.67
2018-07-15T09:15:59.573Z,955.67
2018-07-15T09:16:59.575Z,955.66
2018-07-15T09:17:59.578Z,955.64
2018-07-15T09:18:59.582Z,955.64
2018-07-15T09:19:59.582Z,955.66
2018-07-15T09:20:59.585Z,955.66
2018-07-15T09:21:59.588Z,955.62
2018-07-15T09:22:59.590Z,955.64
2018-07-15T09:23:59.596Z,955.7
2018-07-15T09:24:59.594Z,955.68
2018-07-15T09:25:59.597Z,955.65
2018-07-15T09:26:59.599Z,955.67
2018-07-15T09:27:59.614Z,955.67
2018-07-15T09:28:59.603Z,955.66
2018-07-15T09:29:59.605Z,955.68
2018-07-15T09:30:59.606Z,955.68
2018-07-15T09:31:59.609Z,955.63
2018-07-15T09:32:59.612Z,955.65
2018-07-15T09:33:59.613Z,955.61
2018-07-15T09:34:59.614Z,955.66
2018-07-15T09:35:59.618Z,955.61
2018-07-15T09:36:59.619Z,955.59
2018-07-15T09:37:59.625Z,955.55
2018-07-15T09:38:59.622Z,955.61
2018-07-15T09:39:59.624Z,955.56
2018-07-15T09:40:59.630Z,955.56
2018-07-15T09:41:59.631Z,955.54
2018-07-15T09:42:59.630Z,955.56
2018-07-15T09:43:59.632Z,955.53
2018-07-15T09:44:59.633Z,955.6
2018-07-15T09:45:59.635Z,955.56
2018-07-15T09:46:59.637Z,955.49
2018-07-15T09:47:59.639Z,955.53
2018-07-15T09:48:59.640Z,955.51
2018-07-15T09:49:59.642Z,955.46
2018-07-15T09:50:59.646Z,955.47
2018-07-15T09:51:59.647Z,955.5
2018-07-15T09:52:59.648Z,955.47
2018-07-15T09:53:59.649Z,955.51
2018-07-15T09:54:59.652Z,955.51
2018-07-15T09:55:59.655Z,955.51
2018-07-15T09:56:59.656Z,955.51
2018-07-15T09:57:59.658Z,955.47
2018-07-15T09:58:59.659Z,955.45
2018-07-15T09:59:59.661Z,955.41
2018-07-15T10:00:59.663Z,955.4
2018-07-15T10:01:59.665Z,955.38
2018-07-15T10:02:59.668Z,955.4
2018-07-15T10:03:59.668Z,955.38
2018-07-15T10:04:59.670Z,955.35
2018-07-15T10:05:59.675Z,955.37
2018-07-15T10:06:59.675Z,955.38
2018-07-15T10:07:59.677Z,955.35
2018-07-15T10:08:59.678Z,955.33
2018-07-15T10:09:59.679Z,955.35
2018-07-15T10:10:59.680Z,955.33
2018-07-15T10:11:59.684Z,955.32
2018-07-15T10:12:59.685Z,955.32
2018-07-15T10:13:59.687Z,955.31
2018-07-15T10:14:59.690Z,955.32
2018-07-15T10:15:59.692Z,955.31
2018-07-15T10:16:59.693Z,955.28
2018-07-15T10:17:59.696Z,955.26
2018-07-15T10:18:59.757Z,955.25
2018-07-15T10:19:59.700Z,955.27
2018-07-15T10:20:59.703Z,955.27
2018-07-15T10:21:59.704Z,955.24
2018-07-15T10:22:59.706Z,955.25
2018-07-15T10:23:59.709Z,955.27
2018-07-15T10:24:59.709Z,955.27
2018-07-15T10:25:59.710Z,955.24
2018-07-15T10:26:59.713Z,955.27
2018-07-15T10:27:59.716Z,955.24
2018-07-15T10:28:59.717Z,955.22
2018-07-15T10:29:59.719Z,955.22
2018-07-15T10:30:59.721Z,955.23
2018-07-15T10:31:59.724Z,955.22
2018-07-15T10:32:59.726Z,955.23
2018-07-15T10:33:59.731Z,955.19
2018-07-15T10:34:59.731Z,955.24
2018-07-15T10:35:59.731Z,955.18
2018-07-15T10:36:59.734Z,955.18
2018-07-15T10:37:59.736Z,955.17
2018-07-15T10:38:59.805Z,955.18
2018-07-15T10:39:59.738Z,955.16
2018-07-15T10:40:59.740Z,955.13
2018-07-15T10:41:59.743Z,955.11
2018-07-15T10:42:59.746Z,955.12
2018-07-15T10:43:59.749Z,955.05
2018-07-15T10:44:59.749Z,955.05
2018-07-15T10:45:59.751Z,955.04
2018-07-15T10:46:59.754Z,955.03
2018-07-15T10:47:59.755Z,955.05
2018-07-15T10:48:59.758Z,955.04
2018-07-15T10:49:59.761Z,955.01
2018-07-15T10:50:59.762Z,955.01
2018-07-15T10:51:59.765Z,955.03
2018-07-15T10:52:59.932Z,955.01
2018-07-15T10:53:59.769Z,954.98
2018-07-15T10:54:59.771Z,954.95
2018-07-15T10:55:59.776Z,954.96
2018-07-15T10:56:59.777Z,954.96
2018-07-15T10:57:59.779Z,954.92
2018-07-15T10:58:59.784Z,954.88
2018-07-15T10:59:59.788Z,954.84
2018-07-15T11:00:59.813Z,954.86
2018-07-15T11:01:59.789Z,954.85
2018-07-15T11:02:59.791Z,954.79
2018-07-15T11:03:59.793Z,954.77
2018-07-15T11:04:59.797Z,954.77
2018-07-15T11:05:59.797Z,954.71
2018-07-15T11:06:59.804Z,954.71
2018-07-15T11:07:59.803Z,954.7
2018-07-15T11:08:59.805Z,954.67
2018-07-15T11:09:59.806Z,954.64
2018-07-15T11:10:59.810Z,954.63
2018-07-15T11:11:59.812Z,954.6
2018-07-15T11:12:59.814Z,954.61
2018-07-15T11:13:59.816Z,954.64
2018-07-15T11:14:59.818Z,954.6
2018-07-15T11:15:59.843Z,954.57
2018-07-15T11:16:59.823Z,954.56
2018-07-15T11:17:59.828Z,954.56
2018-07-15T11:18:59.829Z,954.52
2018-07-15T11:19:59.830Z,954.51
2018-07-15T11:20:59.832Z,954.57
2018-07-15T11:21:59.836Z,954.55
2018-07-15T11:22:59.839Z,954.5
2018-07-15T11:23:59.840Z,954.5
2018-07-15T11:24:59.844Z,954.47
2018-07-15T11:25:59.858Z,954.53
2018-07-15T11:26:59.849Z,954.45
2018-07-15T11:27:59.851Z,954.5
2018-07-15T11:28:59.853Z,954.52
2018-07-15T11:29:59.856Z,954.5
2018-07-15T11:30:59.935Z,954.5
2018-07-15T11:31:59.859Z,954.48
2018-07-15T11:32:59.863Z,954.43
2018-07-15T11:33:59.866Z,954.49
2018-07-15T11:34:59.869Z,954.46
2018-07-15T11:35:59.871Z,954.45
2018-07-15T11:36:59.874Z,954.45
2018-07-15T11:37:59.878Z,954.47
2018-07-15T11:38:59.917Z,954.47
2018-07-15T11:39:59.882Z,954.44
2018-07-15T11:40:59.884Z,954.44
2018-07-15T11:41:59.892Z,954.43
2018-07-15T11:42:59.888Z,954.45
2018-07-15T11:43:59.892Z,954.41
2018-07-15T11:44:59.894Z,954.38
2018-07-15T11:45:59.897Z,954.42
2018-07-15T11:46:59.899Z,954.39
2018-07-15T11:47:59.903Z,954.41
2018-07-15T11:48:59.907Z,954.41
2018-07-15T11:49:59.907Z,954.4
2018-07-15T11:50:59.910Z,954.39
2018-07-15T11:51:59.912Z,954.4
2018-07-15T11:52:59.915Z,954.41
2018-07-15T11:53:59.918Z,954.41
2018-07-15T11:54:59.921Z,954.46
2018-07-15T11:55:59.923Z,954.44
2018-07-15T11:56:59.932Z,954.43
2018-07-15T11:57:59.929Z,954.44
2018-07-15T11:58:59.931Z,954.41
2018-07-15T11:59:59.935Z,954.41
2018-07-15T12:00:59.936Z,954.43
2018-07-15T12:02:00.015Z,954.41
2018-07-15T12:02:59.949Z,954.45
2018-07-15T12:03:59.944Z,954.46
2018-07-15T12:05:00.007Z,954.41
2018-07-15T12:05:59.948Z,954.37
2018-07-15T12:06:59.951Z,954.38
2018-07-15T12:07:59.953Z,954.34
2018-07-15T12:08:59.956Z,954.35
2018-07-15T12:09:59.959Z,954.35
2018-07-15T12:11:00.007Z,954.33
2018-07-15T12:11:59.962Z,954.33
2018-07-15T12:12:59.965Z,954.32
2018-07-15T12:13:59.968Z,954.27
2018-07-15T12:14:59.970Z,954.32
2018-07-15T12:15:59.973Z,954.32
2018-07-15T12:16:59.977Z,954.25
2018-07-15T12:17:59.981Z,954.3
2018-07-15T12:18:59.982Z,954.32
2018-07-15T12:19:59.983Z,954.33
2018-07-15T12:20:59.986Z,954.36
2018-07-15T12:21:59.990Z,954.36
2018-07-15T12:22:59.991Z,954.31
2018-07-15T12:23:59.995Z,954.32
2018-07-15T12:24:59.997Z,954.33
2018-07-15T12:25:59.999Z,954.31
2018-07-15T12:27:00.008Z,954.36
2018-07-15T12:28:00.008Z,954.27
2018-07-15T12:29:00.019Z,954.38
2018-07-15T12:30:00.038Z,954.3
2018-07-15T12:31:00.034Z,954.31